Clima Ilopango International Airport
Currently
Currently
Currently
METAR
MSSS 032050Z 19007KT 9999 NCD 31/26 Q1014 A2997 MSSS 031950Z 13004KT 9999 NCD 33/23 Q1015 A3000 MSSS 031850Z 15006KT 9999 NCD 32/25 Q1016 A3002 TAF MSSS 031525Z 0318/0418 18012KT 9999 SCT020 SCT033CB TX31/0318Z TN21/0411Z TEMPO 0323/0402 35010KT 5000 TSRA BKN020 BKN033CB FM040500 35005KT 9999 SCT020 TEMPO 0411/0414 5000 BR
TAF
MSSS 031525Z 0318/0418 18012KT 9999 SCT020 SCT033CB TX31/0318Z TN21/0411Z TEMPO 0323/0402 35010KT 5000 TSRA BKN020 BKN033CB FM040500 35005KT 9999 SCT020 TEMPO 0411/0414 5000 BR

Cámaras Aeroclub

Norte

Este

Sur

Oeste

AIS/AIP El Salvador

Autoridad de Aviación Civil (AAC) El Salvador

VER DOCUMENTO